Time;durP1;ratioP1;P1;durP2;ratioP2;P2;SDS_P1;SDS_P2;PMS_P1;PMS_P2;Temp;Humidity;BMP_temperature;BMP_pressure;BME280_temperature;BME280_humidity;BME280_pressure;Samples;Min_cycle;Max_cycle;Signal;HPM_P1;HPM_P2
2022/11/25 00:02:15;;;;;;;10.87;5.37;;;8.40;99.90;;;;;;5063315;28;20217;-73
2022/11/25 00:04:40;;;;;;;14.90;5.90;;;8.40;99.90;;;;;;5063418;28;20327;-72
2022/11/25 00:07:06;;;;;;;8.83;4.97;;;8.40;99.90;;;;;;5065845;28;20187;-72
2022/11/25 00:09:31;;;;;;;7.07;4.70;;;8.40;99.90;;;;;;5066799;28;20190;-72
2022/11/25 00:11:57;;;;;;;13.20;5.00;;;8.40;99.90;;;;;;5067402;28;20207;-72
2022/11/25 00:14:22;;;;;;;9.17;4.83;;;8.40;99.90;;;;;;5068952;28;20183;-72
2022/11/25 00:16:48;;;;;;;10.90;5.60;;;8.40;99.90;;;;;;5067873;28;20190;-72
2022/11/25 00:19:14;;;;;;;9.87;4.60;;;8.40;99.90;;;;;;5068190;28;20186;-71
2022/11/25 00:21:39;;;;;;;9.60;4.63;;;8.40;99.90;;;;;;5065547;28;20214;-72
2022/11/25 00:24:06;;;;;;;9.67;4.90;;;8.40;99.90;;;;;;5063707;28;20175;-72
2022/11/25 00:26:33;;;;;;;8.37;4.63;;;8.40;99.90;;;;;;5065672;28;20207;-72
2022/11/25 00:29:01;;;;;;;10.50;4.80;;;8.40;99.90;;;;;;5066908;28;20433;-72
2022/11/25 00:31:29;;;;;;;8.10;4.67;;;8.40;99.90;;;;;;5071572;28;20550;-73
2022/11/25 00:33:55;;;;;;;9.20;4.70;;;8.40;99.90;;;;;;5067048;28;20432;-73
2022/11/25 00:36:22;;;;;;;8.70;4.80;;;8.40;99.90;;;;;;5063460;28;21169;-72
2022/11/25 00:38:53;;;;;;;12.10;5.53;;;8.40;99.90;;;;;;5070651;28;20420;-73
2022/11/25 00:46:47;;;;;;;9.63;4.90;;;8.50;99.90;;;;;;5070918;28;20460;-73
2022/11/25 00:49:13;;;;;;;6.20;4.73;;;8.50;99.90;;;;;;5066781;28;20437;-73
2022/11/25 00:51:38;;;;;;;9.43;4.63;;;8.40;99.90;;;;;;5065713;28;20202;-73
2022/11/25 00:54:04;;;;;;;10.00;4.30;;;8.50;99.90;;;;;;5060063;28;21010;-72
2022/11/25 00:56:30;;;;;;;8.30;4.47;;;8.50;99.90;;;;;;5065625;28;20630;-72
2022/11/25 00:58:55;;;;;;;15.37;6.97;;;8.50;99.90;;;;;;5060708;28;20178;-72
2022/11/25 01:01:21;;;;;;;9.00;5.73;;;8.50;99.90;;;;;;5067416;28;20214;-72
2022/11/25 01:03:51;;;;;;;14.97;6.87;;;8.50;99.90;;;;;;5066428;28;20697;-72
2022/11/25 01:06:17;;;;;;;11.27;6.20;;;8.40;99.90;;;;;;5064886;28;20210;-72
2022/11/25 01:08:42;;;;;;;10.33;5.63;;;8.30;99.90;;;;;;5066804;28;20433;-72
2022/11/25 01:11:12;;;;;;;8.63;6.20;;;8.20;99.90;;;;;;5057396;28;20445;-73
2022/11/25 01:13:37;;;;;;;12.60;6.27;;;8.20;99.90;;;;;;5065383;28;20203;-72
2022/11/25 01:16:05;;;;;;;11.93;6.80;;;8.20;99.90;;;;;;5062168;28;20819;-73
2022/11/25 01:18:31;;;;;;;9.67;5.93;;;8.10;99.90;;;;;;5069488;28;20183;-72
2022/11/25 01:21:11;;;;;;;13.50;6.07;;;8.20;99.90;;;;;;5061868;28;20474;-72
2022/11/25 01:23:36;;;;;;;8.57;5.33;;;8.20;99.90;;;;;;5064846;28;20847;-72
2022/11/25 01:26:03;;;;;;;9.03;4.90;;;8.10;99.90;;;;;;5065589;28;20494;-72
2022/11/25 01:28:29;;;;;;;8.27;5.07;;;8.10;99.90;;;;;;5061656;28;20187;-72
2022/11/25 01:31:02;;;;;;;12.07;7.17;;;8.10;99.90;;;;;;5062625;28;20472;-72
2022/11/25 01:33:31;;;;;;;10.47;4.53;;;8.00;99.90;;;;;;5062912;28;21009;-72
2022/11/25 01:36:01;;;;;;;6.93;4.30;;;8.00;99.90;;;;;;5064146;28;20460;-72
2022/11/25 01:38:26;;;;;;;6.90;3.83;;;8.00;99.90;;;;;;5059015;28;20427;-71
2022/11/25 01:40:52;;;;;;;7.23;3.40;;;8.00;99.90;;;;;;5068844;28;22955;-71
2022/11/25 01:43:17;;;;;;;7.93;3.53;;;8.00;99.90;;;;;;5067640;28;20236;-71
2022/11/25 01:45:43;;;;;;;9.23;3.83;;;7.90;99.90;;;;;;5063279;28;20255;-72
2022/11/25 01:48:39;;;;;;;5.93;3.90;;;7.80;99.90;;;;;;5069865;28;20273;-73
2022/11/25 01:51:12;;;;;;;8.97;3.80;;;7.80;99.90;;;;;;5057508;28;20653;-73
2022/11/25 01:53:37;;;;;;;7.93;3.13;;;7.80;99.90;;;;;;5062632;28;20504;-73
2022/11/25 01:56:03;;;;;;;4.40;3.10;;;7.80;99.90;;;;;;5056821;28;20544;-72
2022/11/25 01:58:36;;;;;;;6.13;3.20;;;7.80;99.90;;;;;;5057566;28;20187;-71
2022/11/25 02:01:02;;;;;;;21.87;3.80;;;7.80;99.90;;;;;;5069148;28;20187;-72
2022/11/25 02:03:33;;;;;;;10.73;3.97;;;7.90;99.90;;;;;;5065192;28;20990;-72
2022/11/25 02:06:09;;;;;;;5.50;3.80;;;7.90;99.90;;;;;;5064205;28;20461;-73
2022/11/25 02:08:35;;;;;;;7.57;5.43;;;8.00;99.90;;;;;;5066921;28;20440;-73
2022/11/25 02:11:03;;;;;;;7.77;4.07;;;8.00;99.90;;;;;;5068907;28;20436;-71
2022/11/25 02:13:31;;;;;;;8.40;4.80;;;8.00;99.90;;;;;;5064249;28;20463;-71
2022/11/25 02:15:56;;;;;;;8.00;3.70;;;8.00;99.90;;;;;;5064950;28;20486;-71
2022/11/25 02:18:23;;;;;;;9.43;4.43;;;8.00;99.90;;;;;;5067080;28;20504;-72
2022/11/25 02:20:49;;;;;;;8.83;4.73;;;8.10;99.90;;;;;;5069893;28;20182;-71
2022/11/25 02:23:29;;;;;;;9.50;3.73;;;8.00;99.90;;;;;;5073090;28;20460;-70
2022/11/25 02:25:55;;;;;;;8.80;4.40;;;8.00;99.90;;;;;;5069256;28;20632;-71
2022/11/25 02:28:29;;;;;;;7.73;3.53;;;8.10;99.90;;;;;;5068856;28;21699;-71
2022/11/25 02:30:55;;;;;;;6.93;3.33;;;8.10;99.90;;;;;;5072962;28;20174;-71
2022/11/25 02:33:21;;;;;;;7.00;4.27;;;8.10;99.90;;;;;;5066379;28;20546;-72
2022/11/25 02:35:54;;;;;;;10.63;4.40;;;8.10;99.90;;;;;;5074661;28;20460;-72
2022/11/25 02:38:45;;;;;;;11.10;4.70;;;8.10;99.90;;;;;;5066267;28;20421;-71
2022/11/25 02:41:19;;;;;;;7.00;3.93;;;8.10;99.90;;;;;;5070202;28;20437;-71
2022/11/25 02:43:45;;;;;;;7.53;4.93;;;8.10;99.90;;;;;;5072557;28;20509;-71
2022/11/25 02:46:14;;;;;;;7.90;3.90;;;8.10;99.90;;;;;;5068875;28;20902;-71
2022/11/25 02:48:40;;;;;;;8.73;3.10;;;8.10;99.90;;;;;;5066364;28;20430;-72
2022/11/25 02:51:09;;;;;;;6.80;3.60;;;8.10;99.90;;;;;;5063817;28;20445;-72
2022/11/25 02:53:34;;;;;;;6.43;3.57;;;8.10;99.90;;;;;;5071769;28;20974;-72
2022/11/25 02:56:00;;;;;;;7.03;3.17;;;8.10;99.90;;;;;;5062926;28;20457;-72
2022/11/25 02:58:26;;;;;;;5.87;3.30;;;8.10;99.90;;;;;;5064433;28;20178;-72
2022/11/25 03:00:52;;;;;;;7.13;3.67;;;8.10;99.90;;;;;;5068916;28;21019;-73
2022/11/25 03:03:17;;;;;;;6.87;3.27;;;8.10;99.90;;;;;;5065938;28;20520;-73
2022/11/25 03:05:43;;;;;;;7.63;3.50;;;8.10;99.90;;;;;;5069982;28;20274;-71
2022/11/25 03:08:09;;;;;;;8.83;4.60;;;8.00;99.90;;;;;;5060991;28;20261;-72
2022/11/25 03:10:36;;;;;;;6.60;3.57;;;8.10;99.90;;;;;;5068955;28;20186;-73
2022/11/25 03:13:01;;;;;;;6.80;4.00;;;8.10;99.90;;;;;;5066312;28;21031;-73
2022/11/25 03:15:27;;;;;;;7.20;3.40;;;8.10;99.90;;;;;;5068099;28;20452;-73
2022/11/25 03:17:53;;;;;;;8.60;3.90;;;8.10;99.90;;;;;;5072250;28;20812;-72
2022/11/25 03:20:19;;;;;;;6.17;4.03;;;8.10;99.90;;;;;;5044441;28;20276;-72
2022/11/25 03:22:45;;;;;;;5.77;3.30;;;8.10;99.90;;;;;;5066371;28;20193;-72
2022/11/25 03:25:12;;;;;;;6.97;4.53;;;8.10;99.90;;;;;;5063754;28;20460;-73
2022/11/25 03:27:39;;;;;;;10.67;3.60;;;8.10;99.90;;;;;;5064620;28;20437;-74
2022/11/25 03:30:08;;;;;;;10.83;4.43;;;8.10;99.90;;;;;;5070795;28;21340;-73
2022/11/25 03:32:34;;;;;;;7.80;3.40;;;8.10;99.90;;;;;;5069948;28;20979;-73
2022/11/25 03:34:59;;;;;;;5.03;3.40;;;8.10;99.90;;;;;;5059992;28;20538;-73
2022/11/25 03:37:25;;;;;;;5.37;2.80;;;8.10;99.90;;;;;;5065565;28;20214;-73
2022/11/25 03:39:50;;;;;;;6.70;3.43;;;8.10;99.90;;;;;;5061019;28;20255;-73
2022/11/25 03:42:16;;;;;;;7.07;3.23;;;8.10;99.90;;;;;;5067360;28;20195;-73
2022/11/25 03:44:42;;;;;;;5.53;3.20;;;8.20;99.90;;;;;;5059320;28;20203;-72
2022/11/25 03:47:07;;;;;;;6.13;3.30;;;8.20;99.90;;;;;;5073584;28;20406;-73
2022/11/25 03:49:33;;;;;;;5.73;3.37;;;8.20;99.90;;;;;;5062720;28;20547;-73
2022/11/25 03:51:58;;;;;;;5.77;3.40;;;8.20;99.90;;;;;;5064669;28;20214;-73
2022/11/25 03:54:24;;;;;;;6.53;3.63;;;8.20;99.90;;;;;;5065990;28;20194;-74
2022/11/25 03:56:49;;;;;;;10.43;3.67;;;8.20;99.90;;;;;;5065938;28;20562;-71
2022/11/25 03:59:15;;;;;;;5.60;3.10;;;8.20;99.90;;;;;;5061538;28;20818;-72
2022/11/25 04:01:41;;;;;;;7.10;3.43;;;8.20;99.90;;;;;;5067269;28;20652;-71
2022/11/25 04:04:06;;;;;;;5.33;2.90;;;8.20;99.90;;;;;;5070018;28;20655;-72
2022/11/25 04:06:32;;;;;;;4.20;2.80;;;8.20;99.90;;;;;;5063233;28;20743;-72
2022/11/25 04:08:58;;;;;;;5.37;3.03;;;8.10;99.90;;;;;;5063459;28;20185;-71
2022/11/25 04:12:45;;;;;;;6.10;2.90;;;8.10;99.90;;;;;;5062312;28;20182;-71
2022/11/25 04:14:16;;;;;;;5.73;3.77;;;8.10;99.90;;;;;;5066451;28;21010;-71
2022/11/25 04:16:42;;;;;;;5.47;3.37;;;8.10;99.90;;;;;;5065566;28;20446;-72
2022/11/25 04:19:07;;;;;;;5.93;3.33;;;8.10;99.90;;;;;;5070457;28;20445;-72
2022/11/25 04:21:33;;;;;;;6.00;3.07;;;8.10;99.90;;;;;;5070484;28;20532;-73
2022/11/25 04:23:58;;;;;;;6.53;3.03;;;8.10;99.90;;;;;;5069274;28;20189;-73
2022/11/25 04:26:24;;;;;;;5.53;3.03;;;8.10;99.90;;;;;;5070068;28;20210;-72
2022/11/25 04:28:49;;;;;;;5.20;3.33;;;8.00;99.90;;;;;;5068278;28;20197;-72
2022/11/25 04:31:15;;;;;;;6.27;3.83;;;8.00;99.90;;;;;;5068013;28;20187;-73
2022/11/25 04:33:41;;;;;;;5.70;3.10;;;8.00;99.90;;;;;;5068273;28;20347;-72
2022/11/25 04:36:07;;;;;;;5.10;3.03;;;8.00;99.90;;;;;;5069408;28;20682;-72
2022/11/25 04:38:32;;;;;;;8.23;3.53;;;8.00;99.90;;;;;;5063037;28;20652;-73
2022/11/25 04:40:58;;;;;;;5.50;3.30;;;8.00;99.90;;;;;;5068815;28;20855;-73
2022/11/25 04:43:23;;;;;;;7.30;2.93;;;8.10;99.90;;;;;;5065907;28;20182;-74
2022/11/25 04:45:49;;;;;;;13.10;3.63;;;8.10;99.90;;;;;;5065454;28;20211;-74
2022/11/25 04:48:15;;;;;;;7.83;3.87;;;8.00;99.90;;;;;;5062403;28;20195;-73
2022/11/25 04:50:41;;;;;;;11.70;3.50;;;8.00;99.90;;;;;;5062426;28;20972;-72
2022/11/25 04:53:06;;;;;;;5.80;3.83;;;8.00;99.90;;;;;;5067835;28;20213;-72
2022/11/25 04:55:32;;;;;;;7.10;3.73;;;8.00;99.90;;;;;;5068237;28;20235;-72
2022/11/25 04:57:57;;;;;;;6.40;3.30;;;7.90;99.90;;;;;;5062398;28;20440;-72
2022/11/25 05:00:23;;;;;;;6.60;3.70;;;8.00;99.90;;;;;;5060418;28;20183;-72
2022/11/25 05:02:48;;;;;;;5.27;3.43;;;7.90;99.90;;;;;;5065292;28;20276;-72
2022/11/25 05:05:14;;;;;;;4.03;3.23;;;7.90;99.90;;;;;;5057273;28;20291;-72
2022/11/25 05:07:40;;;;;;;8.80;2.87;;;7.90;99.90;;;;;;5060355;28;20586;-72
2022/11/25 05:10:07;;;;;;;6.50;3.90;;;7.90;99.90;;;;;;5065793;28;20210;-72
2022/11/25 05:12:33;;;;;;;7.20;3.40;;;7.90;99.90;;;;;;5069759;28;20217;-73
2022/11/25 05:14:59;;;;;;;6.80;3.70;;;7.90;99.90;;;;;;5072939;28;20957;-72
2022/11/25 05:17:27;;;;;;;5.60;3.27;;;7.80;99.90;;;;;;5063648;28;20498;-71
2022/11/25 05:19:53;;;;;;;4.30;3.20;;;7.80;99.90;;;;;;5067903;28;20507;-71
2022/11/25 05:22:24;;;;;;;6.53;3.23;;;7.80;99.90;;;;;;5068934;28;20448;-72
2022/11/25 05:24:50;;;;;;;5.10;3.10;;;7.80;99.90;;;;;;5071846;28;20550;-72
2022/11/25 05:27:16;;;;;;;6.13;3.43;;;7.80;99.90;;;;;;5064255;28;20448;-72
2022/11/25 05:29:42;;;;;;;9.07;4.80;;;7.80;99.90;;;;;;5068632;28;20872;-73
2022/11/25 05:32:09;;;;;;;8.87;3.57;;;7.80;99.90;;;;;;5070087;28;20473;-72
2022/11/25 05:34:34;;;;;;;6.10;3.77;;;7.80;99.90;;;;;;5069268;28;20479;-72
2022/11/25 05:37:00;;;;;;;5.80;3.40;;;7.80;99.90;;;;;;5069489;28;20705;-72
2022/11/25 05:39:26;;;;;;;8.37;3.43;;;7.80;99.90;;;;;;5067818;28;21539;-72
2022/11/25 05:41:51;;;;;;;7.13;4.10;;;7.70;99.90;;;;;;5071503;28;20180;-73
2022/11/25 05:44:17;;;;;;;7.93;3.77;;;7.70;99.90;;;;;;5060758;28;20180;-73
2022/11/25 05:46:47;;;;;;;5.47;3.70;;;7.70;99.90;;;;;;5064520;28;20275;-74
2022/11/25 05:49:13;;;;;;;9.43;4.30;;;7.70;99.90;;;;;;5070313;28;20174;-73
2022/11/25 05:51:39;;;;;;;5.37;3.40;;;7.70;99.90;;;;;;5070549;28;20458;-72
2022/11/25 05:54:04;;;;;;;7.47;4.03;;;7.70;99.90;;;;;;5067886;28;20444;-73
2022/11/25 05:56:30;;;;;;;6.93;4.07;;;7.70;99.90;;;;;;5065911;28;20237;-73
2022/11/25 05:58:58;;;;;;;7.00;4.00;;;7.70;99.90;;;;;;5070420;28;20230;-74
2022/11/25 06:01:24;;;;;;;5.50;3.83;;;7.70;99.90;;;;;;5064606;28;20190;-73
2022/11/25 06:03:49;;;;;;;9.90;4.67;;;7.70;99.90;;;;;;5062606;28;20441;-74
2022/11/25 06:06:15;;;;;;;5.40;4.30;;;7.70;99.90;;;;;;5062962;28;20214;-73
2022/11/25 06:08:41;;;;;;;6.30;4.60;;;7.70;99.90;;;;;;5065820;28;20277;-74
2022/11/25 06:11:08;;;;;;;7.53;4.03;;;7.70;99.90;;;;;;5064313;28;20645;-73
2022/11/25 06:13:34;;;;;;;8.87;5.40;;;7.70;99.90;;;;;;5067592;28;20330;-74
2022/11/25 06:16:06;;;;;;;5.30;4.17;;;7.70;99.90;;;;;;5067033;28;20464;-73
2022/11/25 06:18:31;;;;;;;8.30;4.70;;;7.70;99.90;;;;;;5075765;28;20245;-73
2022/11/25 06:20:58;;;;;;;10.57;4.87;;;7.70;99.90;;;;;;5063967;28;21041;-73
2022/11/25 06:23:24;;;;;;;10.80;5.33;;;7.80;99.90;;;;;;5075541;28;20226;-73
2022/11/25 06:25:50;;;;;;;9.43;4.57;;;7.80;99.90;;;;;;5079614;28;20451;-73
2022/11/25 06:28:16;;;;;;;7.90;4.30;;;7.80;99.90;;;;;;5076363;28;20427;-74
2022/11/25 06:30:42;;;;;;;8.40;5.00;;;7.80;99.90;;;;;;5078094;28;20501;-73
2022/11/25 06:33:07;;;;;;;5.87;4.67;;;7.80;99.90;;;;;;5076801;28;20313;-73
2022/11/25 06:35:33;;;;;;;10.70;5.40;;;7.80;99.90;;;;;;5078393;28;21094;-72
2022/11/25 06:37:58;;;;;;;9.47;4.87;;;7.80;99.90;;;;;;5072193;28;20213;-72
2022/11/25 06:40:24;;;;;;;7.30;4.57;;;7.90;99.90;;;;;;5074440;28;20563;-72
2022/11/25 06:42:50;;;;;;;9.47;4.77;;;7.90;99.90;;;;;;5079857;28;20194;-72
2022/11/25 06:45:15;;;;;;;8.90;5.07;;;7.90;99.90;;;;;;5075219;28;20368;-72
2022/11/25 06:47:41;;;;;;;5.90;4.43;;;7.90;99.90;;;;;;5069658;28;20257;-72
2022/11/25 06:50:07;;;;;;;5.80;4.47;;;7.90;99.90;;;;;;5064031;28;20301;-72
2022/11/25 06:52:33;;;;;;;9.20;5.03;;;7.80;99.90;;;;;;5065719;28;20527;-71
2022/11/25 06:54:58;;;;;;;10.27;4.87;;;7.90;99.90;;;;;;5062238;28;20453;-71
2022/11/25 06:57:24;;;;;;;7.03;4.10;;;7.80;99.90;;;;;;5065893;28;20189;-70
2022/11/25 06:59:50;;;;;;;10.40;4.90;;;7.70;99.90;;;;;;5060451;28;20186;-70
2022/11/25 07:02:16;;;;;;;9.70;4.27;;;7.70;99.90;;;;;;5062663;28;20186;-70
2022/11/25 07:04:41;;;;;;;12.17;4.50;;;7.70;99.90;;;;;;5064419;28;20779;-70
2022/11/25 07:07:07;;;;;;;8.13;3.53;;;7.70;99.90;;;;;;5065046;28;20178;-71
2022/11/25 07:09:33;;;;;;;7.47;4.27;;;7.60;99.90;;;;;;5063901;28;20183;-71
2022/11/25 07:11:58;;;;;;;8.60;5.23;;;7.70;99.90;;;;;;5063776;28;20217;-71
2022/11/25 07:14:24;;;;;;;8.60;4.90;;;7.70;99.90;;;;;;5064961;28;20183;-71
2022/11/25 07:16:53;;;;;;;6.83;4.40;;;7.80;99.90;;;;;;5065757;28;20809;-71
2022/11/25 07:19:18;;;;;;;10.70;4.27;;;7.80;99.90;;;;;;5063442;28;20186;-71
2022/11/25 07:21:45;;;;;;;6.37;3.90;;;7.90;99.90;;;;;;5063429;28;20885;-70
2022/11/25 07:24:13;;;;;;;5.67;3.33;;;7.90;99.90;;;;;;5073448;28;20692;-71
2022/11/25 07:26:41;;;;;;;6.90;3.43;;;7.80;99.90;;;;;;5063320;28;20432;-71
2022/11/25 07:29:10;;;;;;;7.50;3.30;;;7.80;99.90;;;;;;5066991;28;20531;-71
2022/11/25 07:31:39;;;;;;;9.77;3.67;;;7.80;99.90;;;;;;5064236;28;20439;-72
2022/11/25 07:34:17;;;;;;;5.03;4.53;;;7.80;99.90;;;;;;5065558;28;20582;-72
2022/11/25 07:36:43;;;;;;;20.80;8.20;;;7.80;99.90;;;;;;5059473;28;20427;-72
2022/11/25 07:39:17;;;;;;;23.57;13.60;;;7.80;99.90;;;;;;5065461;28;20449;-72
2022/11/25 07:41:43;;;;;;;19.30;10.63;;;7.90;99.90;;;;;;5063813;28;20496;-69
2022/11/25 07:44:12;;;;;;;21.37;11.43;;;7.90;99.90;;;;;;5067616;28;20436;-70
2022/11/25 07:46:40;;;;;;;11.70;9.20;;;8.00;99.90;;;;;;5063960;28;20174;-70
2022/11/25 07:49:09;;;;;;;14.00;7.67;;;8.10;99.90;;;;;;5062477;28;20440;-70
2022/11/25 07:51:37;;;;;;;11.33;5.53;;;8.10;99.90;;;;;;5063752;28;20835;-69
2022/11/25 07:54:05;;;;;;;8.57;4.77;;;8.20;99.90;;;;;;5062550;28;20475;-69
2022/11/25 07:56:33;;;;;;;8.60;4.80;;;8.20;99.90;;;;;;5065618;28;21007;-70
2022/11/25 07:58:58;;;;;;;13.67;9.37;;;8.30;99.90;;;;;;5063987;28;20429;-72
2022/11/25 08:01:24;;;;;;;9.23;5.50;;;8.30;99.90;;;;;;5062944;28;20861;-72
2022/11/25 08:03:51;;;;;;;6.83;4.07;;;8.40;99.90;;;;;;5062331;28;20191;-72
2022/11/25 08:06:22;;;;;;;6.63;4.20;;;8.40;99.90;;;;;;5051338;28;20211;-72
2022/11/25 08:08:48;;;;;;;16.50;6.93;;;8.50;99.90;;;;;;5055946;28;20914;-72
2022/11/25 08:11:16;;;;;;;29.03;13.40;;;8.50;99.90;;;;;;5060587;28;20429;-72
2022/11/25 08:13:42;;;;;;;12.23;6.83;;;8.60;99.90;;;;;;5068705;28;20456;-75
2022/11/25 08:16:14;;;;;;;10.30;4.70;;;8.70;99.90;;;;;;5067167;28;20817;-74
2022/11/25 08:18:39;;;;;;;25.33;11.60;;;8.70;99.90;;;;;;5070676;28;20523;-72
2022/11/25 08:21:08;;;;;;;9.80;5.43;;;8.80;99.90;;;;;;5072172;28;20433;-74
2022/11/25 08:23:35;;;;;;;9.57;4.53;;;8.90;99.90;;;;;;5064787;28;20277;-72
2022/11/25 08:26:11;;;;;;;12.30;4.60;;;8.90;99.90;;;;;;5061121;28;20477;-73
2022/11/25 08:28:40;;;;;;;20.73;10.70;;;8.90;99.90;;;;;;5071153;28;20501;-73
2022/11/25 08:31:11;;;;;;;17.67;11.83;;;9.00;99.90;;;;;;5074393;28;20457;-73
2022/11/25 08:33:37;;;;;;;24.23;16.20;;;9.00;99.90;;;;;;5073751;28;20467;-73
2022/11/25 08:36:03;;;;;;;43.60;28.43;;;9.00;99.90;;;;;;5072815;28;20853;-70
2022/11/25 08:38:29;;;;;;;23.90;17.00;;;9.10;99.90;;;;;;5069034;28;20175;-70
2022/11/25 08:40:56;;;;;;;23.37;14.50;;;9.20;99.90;;;;;;5074211;28;20433;-73
2022/11/25 08:43:21;;;;;;;21.23;12.23;;;9.20;99.90;;;;;;5072447;28;20175;-69
2022/11/25 08:45:48;;;;;;;13.53;7.90;;;9.20;99.90;;;;;;5075453;28;20445;-70
2022/11/25 08:48:15;;;;;;;10.97;4.97;;;9.30;99.90;;;;;;5062085;28;20441;-70
2022/11/25 08:50:45;;;;;;;7.93;3.60;;;9.20;99.90;;;;;;5063087;28;20452;-70
2022/11/25 08:53:12;;;;;;;5.77;3.07;;;9.30;99.90;;;;;;5061145;28;21040;-69
2022/11/25 08:55:38;;;;;;;12.17;3.67;;;9.30;99.90;;;;;;5074981;28;20813;-69
2022/11/25 08:58:04;;;;;;;6.50;3.70;;;9.30;99.90;;;;;;5064354;28;20447;-70
2022/11/25 09:00:29;;;;;;;3.60;2.80;;;9.40;99.90;;;;;;5060126;28;20441;-72
2022/11/25 09:02:55;;;;;;;7.23;4.00;;;9.40;99.90;;;;;;5063745;28;20212;-72
2022/11/25 09:05:21;;;;;;;4.83;3.30;;;9.30;99.90;;;;;;5063549;28;20233;-72
2022/11/25 09:07:46;;;;;;;6.50;3.77;;;9.30;99.90;;;;;;5061396;28;20178;-71
2022/11/25 09:10:15;;;;;;;5.53;3.00;;;9.30;99.90;;;;;;5061674;28;20449;-71
2022/11/25 09:12:41;;;;;;;4.53;3.07;;;9.20;99.90;;;;;;5060945;28;20207;-73
2022/11/25 09:15:07;;;;;;;7.10;3.40;;;9.10;99.90;;;;;;5070543;28;20462;-72
2022/11/25 09:17:36;;;;;;;6.20;3.87;;;9.30;99.90;;;;;;5070532;28;20190;-70
2022/11/25 09:20:04;;;;;;;7.60;3.93;;;9.30;99.90;;;;;;5063954;28;20759;-69
2022/11/25 09:22:30;;;;;;;8.70;4.20;;;9.00;99.90;;;;;;5062033;28;20448;-70
2022/11/25 09:24:56;;;;;;;6.30;3.90;;;9.00;99.90;;;;;;5061698;28;20461;-72
2022/11/25 09:27:21;;;;;;;6.83;5.00;;;9.00;99.90;;;;;;5059304;28;20504;-71
2022/11/25 09:29:47;;;;;;;7.10;4.40;;;9.00;99.90;;;;;;5062010;28;20231;-72
2022/11/25 09:32:13;;;;;;;11.43;4.77;;;8.90;99.90;;;;;;5064097;28;20199;-70
2022/11/25 09:34:38;;;;;;;5.40;4.23;;;9.00;99.90;;;;;;5064596;28;20675;-71
2022/11/25 09:37:04;;;;;;;9.03;4.60;;;9.00;99.90;;;;;;5065873;28;20179;-67
2022/11/25 09:39:29;;;;;;;9.00;4.33;;;9.00;99.90;;;;;;5076089;28;20621;-72
2022/11/25 09:48:37;;;;;;;8.37;4.40;;;9.10;99.90;;;;;;5066042;28;20465;-72
2022/11/25 09:51:17;;;;;;;8.60;5.13;;;9.20;99.90;;;;;;5065169;28;20953;-71
2022/11/25 09:53:45;;;;;;;5.70;4.57;;;9.10;99.90;;;;;;5062296;28;20880;-72
2022/11/25 09:56:33;;;;;;;6.30;4.43;;;9.20;99.90;;;;;;5065860;28;20472;-73
2022/11/25 09:59:06;;;;;;;7.10;4.80;;;9.20;99.90;;;;;;5063792;28;20429;-72
2022/11/25 10:01:44;;;;;;;7.50;4.60;;;9.10;99.90;;;;;;5068643;28;20468;-74
2022/11/25 10:04:25;;;;;;;10.87;5.33;;;9.10;99.90;;;;;;5065946;28;20794;-71
2022/11/25 10:06:56;;;;;;;10.40;5.00;;;9.00;99.90;;;;;;5072799;28;20448;-72
2022/11/25 10:09:25;;;;;;;14.70;5.30;;;9.00;99.90;;;;;;5075917;28;20810;-72
2022/11/25 10:11:59;;;;;;;7.00;4.40;;;9.10;99.90;;;;;;5067508;28;20465;-70
2022/11/25 10:14:41;;;;;;;24.40;14.30;;;9.20;99.90;;;;;;5076174;28;20534;-69
2022/11/25 10:17:14;;;;;;;9.10;4.30;;;9.20;99.90;;;;;;5069270;28;20428;-70
2022/11/25 10:19:55;;;;;;;6.80;4.90;;;9.30;99.90;;;;;;5077808;28;20503;-69
2022/11/25 10:22:26;;;;;;;8.30;4.80;;;9.20;99.90;;;;;;5073917;28;20436;-70
2022/11/25 10:24:56;;;;;;;7.70;4.40;;;9.30;99.90;;;;;;5077709;28;20472;-69
2022/11/25 10:27:42;;;;;;;8.40;4.87;;;9.40;99.90;;;;;;5078347;28;20535;-70
2022/11/25 10:30:22;;;;;;;7.97;4.37;;;9.30;99.90;;;;;;5075011;28;20533;-69
2022/11/25 10:32:56;;;;;;;9.10;4.00;;;9.40;99.90;;;;;;5062024;28;20464;-70
2022/11/25 10:35:34;;;;;;;7.03;5.03;;;9.40;99.90;;;;;;5068897;28;20910;-69
2022/11/25 10:38:02;;;;;;;6.90;4.73;;;9.30;99.90;;;;;;5078066;28;20444;-68
2022/11/25 10:40:28;;;;;;;9.70;5.00;;;9.40;99.90;;;;;;5075700;28;20476;-70
2022/11/25 10:42:54;;;;;;;5.20;4.47;;;9.40;99.90;;;;;;5074708;28;20868;-69
2022/11/25 10:45:28;;;;;;;8.83;6.40;;;9.40;99.90;;;;;;5066794;28;20318;-69
2022/11/25 10:48:05;;;;;;;9.10;4.60;;;9.40;99.90;;;;;;5066557;28;20431;-71
2022/11/25 10:50:52;;;;;;;8.53;4.93;;;9.40;99.90;;;;;;5061962;28;20444;-74
2022/11/25 10:53:25;;;;;;;9.10;5.00;;;9.40;99.90;;;;;;5074170;28;20464;-71
2022/11/25 10:56:16;;;;;;;7.97;4.20;;;9.40;99.90;;;;;;5064306;28;20449;-69
2022/11/25 10:58:42;;;;;;;9.70;5.93;;;9.50;99.90;;;;;;5060538;28;20441;-69
2022/11/25 11:01:17;;;;;;;8.03;5.30;;;9.60;99.90;;;;;;5068849;28;20445;-69
2022/11/25 11:03:49;;;;;;;15.07;6.60;;;9.50;99.90;;;;;;5075719;28;20186;-69
2022/11/25 11:06:31;;;;;;;12.20;5.30;;;9.50;99.90;;;;;;5077471;28;20463;-70
2022/11/25 11:08:56;;;;;;;8.53;6.33;;;9.70;99.90;;;;;;5078647;28;20934;-70
2022/11/25 11:11:23;;;;;;;6.80;5.43;;;9.70;99.90;;;;;;5077798;28;20443;-70
2022/11/25 11:14:16;;;;;;;11.73;6.47;;;9.90;99.90;;;;;;5077261;28;20249;-70
2022/11/25 11:16:51;;;;;;;11.97;6.30;;;9.90;99.90;;;;;;5073593;28;20453;-69
2022/11/25 11:19:28;;;;;;;11.90;6.20;;;9.80;99.90;;;;;;5074073;28;20825;-69
2022/11/25 11:21:54;;;;;;;11.10;6.00;;;9.70;99.90;;;;;;5072790;28;20528;-70
2022/11/25 11:24:40;;;;;;;14.40;6.80;;;9.80;99.90;;;;;;5072089;28;20467;-70
2022/11/25 11:27:08;;;;;;;7.97;5.93;;;9.80;99.90;;;;;;5074114;28;20513;-69
2022/11/25 11:29:35;;;;;;;11.13;5.87;;;9.90;99.90;;;;;;5074672;28;20432;-70
2022/11/25 11:32:06;;;;;;;6.83;5.40;;;9.90;99.90;;;;;;5076396;28;20428;-70
2022/11/25 11:35:01;;;;;;;10.50;6.73;;;10.00;99.90;;;;;;5076993;28;20523;-69
2022/11/25 11:37:43;;;;;;;10.30;6.93;;;10.10;99.90;;;;;;5075029;28;20523;-70
2022/11/25 11:40:54;;;;;;;13.23;7.40;;;10.20;99.90;;;;;;5078633;28;20529;-69
2022/11/25 11:43:55;;;;;;;9.23;7.70;;;10.20;99.90;;;;;;5070962;28;20453;-67
2022/11/25 11:46:26;;;;;;;15.03;8.87;;;10.20;99.90;;;;;;5074530;28;20483;-70
2022/11/25 11:49:18;;;;;;;9.80;6.60;;;10.20;99.90;;;;;;5079144;28;21316;-68
2022/11/25 11:51:59;;;;;;;12.20;5.83;;;10.20;99.90;;;;;;5074500;28;20455;-68
2022/11/25 11:54:37;;;;;;;12.13;6.47;;;10.40;99.90;;;;;;5074811;28;20432;-68
2022/11/25 11:57:37;;;;;;;10.50;6.40;;;10.40;99.90;;;;;;5076145;28;20428;-69
2022/11/25 12:00:10;;;;;;;11.30;6.80;;;10.50;99.90;;;;;;5075418;28;20475;-69
2022/11/25 12:02:55;;;;;;;13.50;8.67;;;10.50;99.90;;;;;;5074992;28;20440;-69
2022/11/25 12:05:26;;;;;;;12.70;6.73;;;10.70;99.90;;;;;;5066793;28;20798;-69
2022/11/25 12:08:21;;;;;;;12.47;6.33;;;10.60;99.90;;;;;;5057684;28;20543;-69
2022/11/25 12:10:59;;;;;;;9.13;5.60;;;10.70;99.90;;;;;;5052826;28;20511;-68
2022/11/25 12:13:44;;;;;;;11.00;5.87;;;10.70;99.90;;;;;;5065183;28;20468;-70
2022/11/25 12:16:16;;;;;;;12.30;6.40;;;10.60;99.90;;;;;;5072559;28;20456;-68
2022/11/25 12:19:16;;;;;;;9.60;7.00;;;10.60;99.90;;;;;;5068128;28;20921;-69
2022/11/25 12:21:53;;;;;;;12.67;6.97;;;10.70;99.90;;;;;;5023987;28;20539;-67
2022/11/25 12:24:28;;;;;;;7.53;5.70;;;10.80;99.90;;;;;;5068284;28;20454;-67
2022/11/25 12:27:02;;;;;;;16.97;6.17;;;10.90;99.90;;;;;;5073341;28;20508;-70
2022/11/25 12:29:42;;;;;;;9.60;6.03;;;10.90;99.90;;;;;;5070464;28;20512;-70
2022/11/25 12:32:37;;;;;;;20.10;7.33;;;11.00;99.90;;;;;;5073175;28;20519;-70
2022/11/25 12:35:09;;;;;;;14.93;6.40;;;11.00;99.90;;;;;;5066713;28;20456;-69
2022/11/25 12:37:51;;;;;;;8.60;5.10;;;11.20;99.90;;;;;;5069980;28;20432;-70
2022/11/25 12:40:29;;;;;;;8.00;5.10;;;12.20;99.90;;;;;;5068856;28;20658;-69
2022/11/25 12:43:16;;;;;;;6.93;4.97;;;13.40;99.90;;;;;;5066439;28;20941;-70
2022/11/25 12:45:45;;;;;;;10.30;4.60;;;14.10;99.90;;;;;;5066615;28;20464;-70
2022/11/25 12:48:11;;;;;;;6.10;4.17;;;14.00;99.90;;;;;;5062666;28;20441;-71
2022/11/25 12:50:56;;;;;;;10.80;4.80;;;13.80;99.90;;;;;;5060085;28;20437;-72
2022/11/25 12:53:45;;;;;;;11.37;4.47;;;13.60;99.90;;;;;;5061132;28;20283;-69
2022/11/25 12:56:21;;;;;;;12.10;5.40;;;13.20;99.90;;;;;;5063451;28;20551;-68
2022/11/25 12:58:59;;;;;;;8.13;4.20;;;12.90;99.90;;;;;;5065872;28;20802;-69
2022/11/25 13:01:58;;;;;;;9.10;4.60;;;12.80;99.90;;;;;;5064133;28;20486;-69
2022/11/25 13:04:52;;;;;;;6.77;4.47;;;12.60;99.90;;;;;;5064579;28;20953;-68
2022/11/25 13:07:25;;;;;;;9.07;4.30;;;12.50;99.90;;;;;;5061546;28;20797;-69
2022/11/25 13:10:26;;;;;;;7.17;3.83;;;12.20;99.90;;;;;;5065212;28;20594;-68
2022/11/25 13:12:59;;;;;;;7.90;4.00;;;12.10;99.90;;;;;;5073115;28;20472;-70
2022/11/25 13:15:32;;;;;;;7.50;4.30;;;12.00;99.90;;;;;;5067845;28;20556;-69
2022/11/25 13:18:07;;;;;;;9.87;4.50;;;11.80;99.90;;;;;;5062380;28;20465;-68
2022/11/25 13:20:36;;;;;;;10.73;4.67;;;11.80;99.90;;;;;;5064500;28;20435;-68